Time;durP1;ratioP1;P1;durP2;ratioP2;P2;SDS_P1;SDS_P2;PMS_P1;PMS_P2;Temp;Humidity;BMP_temperature;BMP_pressure;BME280_temperature;BME280_humidity;BME280_pressure;Samples;Min_cycle;Max_cycle;Signal;HPM_P1;HPM_P2
2021/12/13 00:00:36;;;;;;;12.35;6.72;;;;;;;;;;4968833;28;20425;-69
2021/12/13 00:03:22;;;;;;;17.25;7.97;;;;;;;;;;4954247;28;20038;-67
2021/12/13 00:06:10;;;;;;;12.65;6.90;;;;;;;;;;4961437;28;20043;-67
2021/12/13 00:08:57;;;;;;;12.98;5.13;;;;;;;;;;4929036;28;20047;-70
2021/12/13 00:11:44;;;;;;;11.55;5.10;;;;;;;;;;4930007;28;20038;-73
2021/12/13 00:14:33;;;;;;;6.72;4.15;;;;;;;;;;4956461;28;20037;-70
2021/12/13 00:17:24;;;;;;;8.75;4.90;;;;;;;;;;4926598;28;20031;-69
2021/12/13 00:20:13;;;;;;;8.18;4.68;;;;;;;;;;4924038;28;20035;-72
2021/12/13 00:23:01;;;;;;;8.07;4.60;;;;;;;;;;4925256;29;20454;-70
2021/12/13 00:25:48;;;;;;;8.93;4.70;;;;;;;;;;4936041;28;20702;-70
2021/12/13 00:28:37;;;;;;;9.13;5.25;;;;;;;;;;4942162;28;20375;-70
2021/12/13 00:31:25;;;;;;;9.13;4.88;;;;;;;;;;4931613;28;20126;-73
2021/12/13 00:34:29;;;;;;;10.52;5.10;;;;;;;;;;4934507;28;20375;-71
2021/12/13 00:37:21;;;;;;;9.20;5.30;;;;;;;;;;4941918;28;20043;-70
2021/12/13 00:40:10;;;;;;;7.85;4.82;;;;;;;;;;4916515;28;20352;-66
2021/12/13 00:43:07;;;;;;;11.65;5.32;;;;;;;;;;4871951;29;20071;-67
2021/12/13 00:45:55;;;;;;;12.95;5.55;;;;;;;;;;4851870;29;20132;-66
2021/12/13 00:48:42;;;;;;;11.38;7.18;;;;;;;;;;4910449;28;20035;-71
2021/12/13 00:51:36;;;;;;;8.93;4.85;;;;;;;;;;4976836;28;20470;-70
2021/12/13 00:54:32;;;;;;;10.43;4.82;;;;;;;;;;4938772;28;20061;-70
2021/12/13 00:57:23;;;;;;;9.15;4.82;;;;;;;;;;4916568;28;20042;-72
2021/12/13 01:00:29;;;;;;;7.63;3.80;;;;;;;;;;4887095;28;20138;-74
2021/12/13 01:03:19;;;;;;;6.47;4.20;;;;;;;;;;4890521;28;20618;-70
2021/12/13 01:06:07;;;;;;;9.00;4.95;;;;;;;;;;4912760;29;20042;-68
2021/12/13 01:09:11;;;;;;;8.82;4.80;;;;;;;;;;4892848;29;20476;-69
2021/12/13 01:11:58;;;;;;;13.82;5.45;;;;;;;;;;4934649;28;20042;-72
2021/12/13 01:14:53;;;;;;;8.10;4.78;;;;;;;;;;4944082;28;20041;-68
2021/12/13 01:17:56;;;;;;;8.93;4.43;;;;;;;;;;4947192;28;20042;-69
2021/12/13 01:21:15;;;;;;;9.85;5.22;;;;;;;;;;4910755;28;20048;-72
2021/12/13 01:24:07;;;;;;;8.38;4.63;;;;;;;;;;4899784;29;20480;-67
2021/12/13 01:26:53;;;;;;;10.45;5.05;;;;;;;;;;4944698;28;20098;-76
2021/12/13 01:29:38;;;;;;;10.52;4.53;;;;;;;;;;4928556;28;20032;-68
2021/12/13 01:32:25;;;;;;;10.75;5.93;;;;;;;;;;4886068;28;20036;-67
2021/12/13 01:35:25;;;;;;;11.77;5.28;;;;;;;;;;4879742;29;20032;-69
2021/12/13 01:38:15;;;;;;;9.88;5.38;;;;;;;;;;4912449;28;20048;-70
2021/12/13 01:41:08;;;;;;;14.13;6.10;;;;;;;;;;4881218;29;20100;-68
2021/12/13 01:44:13;;;;;;;11.95;6.10;;;;;;;;;;4890417;29;20388;-78
2021/12/13 01:47:04;;;;;;;12.50;5.95;;;;;;;;;;4852764;29;20033;-68
2021/12/13 01:49:52;;;;;;;13.35;5.80;;;;;;;;;;4896840;29;20419;-68
2021/12/13 01:52:38;;;;;;;11.93;5.85;;;;;;;;;;4886563;28;20031;-70
2021/12/13 01:55:34;;;;;;;14.68;8.23;;;;;;;;;;4858417;29;20085;-66
2021/12/13 02:01:16;;;;;;;7.85;4.82;;;;;;;;;;4804548;29;20069;-72
2021/12/13 02:04:05;;;;;;;13.83;6.17;;;;;;;;;;4795573;29;20046;-77
2021/12/13 02:06:55;;;;;;;12.63;5.78;;;;;;;;;;4801986;29;20277;-79
2021/12/13 02:09:43;;;;;;;11.88;6.28;;;;;;;;;;4813364;29;20078;-78
2021/12/13 02:12:30;;;;;;;12.27;6.57;;;;;;;;;;4769279;29;20036;-82
2021/12/13 02:18:21;;;;;;;10.52;5.38;;;;;;;;;;4877372;29;20029;-80
2021/12/13 02:21:11;;;;;;;16.38;6.47;;;;;;;;;;4909721;29;20095;-70
2021/12/13 02:24:01;;;;;;;11.55;6.43;;;;;;;;;;4915885;29;20086;-76
2021/12/13 02:26:47;;;;;;;11.80;5.85;;;;;;;;;;4903432;29;20403;-75
2021/12/13 02:29:37;;;;;;;14.10;6.25;;;;;;;;;;4922360;29;20028;-74
2021/12/13 02:32:27;;;;;;;12.45;6.00;;;;;;;;;;4914959;29;20547;-75
2021/12/13 02:35:13;;;;;;;18.02;7.03;;;;;;;;;;4877216;28;20071;-74
2021/12/13 02:37:59;;;;;;;14.57;6.55;;;;;;;;;;4942899;28;20177;-76
2021/12/13 02:40:45;;;;;;;11.73;5.63;;;;;;;;;;4959661;28;20030;-73
2021/12/13 02:43:32;;;;;;;15.82;6.68;;;;;;;;;;4873749;29;20111;-72
2021/12/13 02:46:18;;;;;;;14.63;6.03;;;;;;;;;;4892159;29;20982;-71
2021/12/13 02:49:06;;;;;;;13.15;6.13;;;;;;;;;;4953422;28;20156;-75
2021/12/13 02:51:56;;;;;;;11.13;6.18;;;;;;;;;;4942677;28;20043;-71
2021/12/13 02:54:46;;;;;;;7.60;4.60;;;;;;;;;;4940655;28;20106;-70
2021/12/13 02:57:40;;;;;;;12.90;6.30;;;;;;;;;;4919223;29;20052;-82
2021/12/13 03:00:29;;;;;;;16.42;7.00;;;;;;;;;;4911463;28;20035;-77
2021/12/13 03:03:16;;;;;;;13.30;5.97;;;;;;;;;;4932089;28;20042;-77
2021/12/13 03:06:04;;;;;;;9.75;5.25;;;;;;;;;;4945398;28;20043;-79
2021/12/13 03:08:52;;;;;;;10.77;6.80;;;;;;;;;;4928576;28;20653;-78
2021/12/13 03:11:37;;;;;;;12.73;5.90;;;;;;;;;;4932519;28;20107;-77
2021/12/13 03:14:34;;;;;;;14.68;6.90;;;;;;;;;;4916932;29;20042;-73
2021/12/13 03:17:28;;;;;;;11.20;6.38;;;;;;;;;;4896814;29;20122;-69
2021/12/13 03:20:21;;;;;;;15.82;8.63;;;;;;;;;;4924511;28;20047;-67
2021/12/13 03:23:17;;;;;;;12.88;5.32;;;;;;;;;;4907848;29;20140;-67
2021/12/13 03:26:21;;;;;;;11.02;6.10;;;;;;;;;;4917554;29;20372;-67
2021/12/13 03:29:11;;;;;;;11.30;6.35;;;;;;;;;;4899158;29;20491;-67
2021/12/13 03:31:56;;;;;;;;;;;;;;;;;;4892401;28;20043;-70
2021/12/13 03:34:54;;;;;;;12.02;8.07;;;;;;;;;;4919218;28;19915;-67
2021/12/13 03:37:42;;;;;;;13.15;6.10;;;;;;;;;;4934191;28;20043;-75
2021/12/13 03:40:28;;;;;;;12.23;6.03;;;;;;;;;;4876913;29;20085;-78
2021/12/13 03:43:29;;;;;;;10.75;6.45;;;;;;;;;;4871848;29;20071;-78
2021/12/13 03:46:16;;;;;;;11.88;6.22;;;;;;;;;;4921491;28;20046;-77
2021/12/13 03:49:03;;;;;;;13.50;6.90;;;;;;;;;;4928175;28;20046;-76
2021/12/13 03:51:53;;;;;;;13.30;6.63;;;;;;;;;;4888287;29;20043;-69
2021/12/13 03:54:41;;;;;;;17.92;7.47;;;;;;;;;;4878098;29;20030;-67
2021/12/13 03:57:27;;;;;;;11.85;7.43;;;;;;;;;;4908610;28;20048;-66
2021/12/13 04:00:15;;;;;;;12.70;7.80;;;;;;;;;;4918955;28;20046;-65
2021/12/13 04:03:03;;;;;;;11.30;7.25;;;;;;;;;;4955368;28;20085;-69
2021/12/13 04:05:49;;;;;;;16.00;7.55;;;;;;;;;;4945665;28;20173;-66
2021/12/13 04:08:34;;;;;;;16.88;7.20;;;;;;;;;;4964055;28;20034;-67
2021/12/13 04:11:21;;;;;;;13.65;7.68;;;;;;;;;;4957697;28;20127;-73
2021/12/13 04:14:15;;;;;;;11.25;6.85;;;;;;;;;;4906369;29;20127;-70
2021/12/13 04:17:09;;;;;;;13.65;7.45;;;;;;;;;;4948520;28;20117;-70
2021/12/13 04:19:57;;;;;;;11.57;5.82;;;;;;;;;;4973649;28;20090;-70
2021/12/13 04:22:46;;;;;;;14.82;7.55;;;;;;;;;;4957527;28;20041;-72
2021/12/13 04:25:34;;;;;;;14.82;7.68;;;;;;;;;;4965216;28;20626;-70
2021/12/13 04:28:22;;;;;;;11.02;6.40;;;;;;;;;;4941282;28;20210;-70
2021/12/13 04:31:09;;;;;;;17.58;7.95;;;;;;;;;;4960865;28;20069;-70
2021/12/13 04:33:57;;;;;;;12.27;7.93;;;;;;;;;;4939049;28;20037;-69
2021/12/13 04:36:44;;;;;;;11.70;6.20;;;;;;;;;;4922534;28;20084;-69
2021/12/13 04:39:32;;;;;;;16.40;7.55;;;;;;;;;;4927333;28;20035;-70
2021/12/13 04:42:18;;;;;;;13.45;7.70;;;;;;;;;;4910018;29;20096;-69
2021/12/13 04:45:11;;;;;;;15.27;7.78;;;;;;;;;;4889635;29;20886;-70
2021/12/13 04:48:02;;;;;;;10.98;6.22;;;;;;;;;;4838435;29;20493;-72
2021/12/13 04:50:56;;;;;;;15.90;8.15;;;;;;;;;;4869442;29;20048;-69
2021/12/13 04:53:44;;;;;;;14.10;6.63;;;;;;;;;;4880981;29;20481;-66
2021/12/13 04:56:29;;;;;;;13.18;8.02;;;;;;;;;;4869307;29;20037;-67
2021/12/13 04:59:15;;;;;;;17.52;8.50;;;;;;;;;;4854774;29;20043;-68
2021/12/13 05:02:02;;;;;;;15.73;8.15;;;;;;;;;;4896548;29;20043;-67
2021/12/13 05:04:49;;;;;;;13.95;7.35;;;;;;;;;;4920674;28;20066;-69
2021/12/13 05:07:36;;;;;;;13.23;7.10;;;;;;;;;;4943347;28;20038;-75
2021/12/13 05:10:25;;;;;;;16.95;8.75;;;;;;;;;;4938258;28;20039;-73
2021/12/13 05:13:12;;;;;;;11.10;8.07;;;;;;;;;;4932744;28;20090;-71
2021/12/13 05:15:59;;;;;;;12.80;8.40;;;;;;;;;;4897495;29;20052;-72
2021/12/13 05:18:50;;;;;;;12.70;7.43;;;;;;;;;;4908560;28;20068;-69
2021/12/13 05:21:43;;;;;;;11.00;6.47;;;;;;;;;;4928448;28;20043;-71
2021/12/13 05:24:30;;;;;;;12.38;7.43;;;;;;;;;;4913953;28;20042;-70
2021/12/13 05:27:35;;;;;;;12.90;7.88;;;;;;;;;;4896676;29;20032;-67
2021/12/13 05:30:23;;;;;;;13.35;7.60;;;;;;;;;;4860301;29;20025;-66
2021/12/13 05:33:09;;;;;;;13.70;7.95;;;;;;;;;;4866996;29;20140;-67
2021/12/13 05:35:56;;;;;;;13.23;7.20;;;;;;;;;;4878253;29;20067;-67
2021/12/13 05:38:43;;;;;;;13.07;6.95;;;;;;;;;;4871361;29;20417;-66
2021/12/13 05:41:29;;;;;;;13.60;8.38;;;;;;;;;;4885339;28;20044;-66
2021/12/13 05:44:21;;;;;;;14.98;7.75;;;;;;;;;;4882834;28;20071;-68
2021/12/13 05:47:15;;;;;;;13.93;7.85;;;;;;;;;;4914962;28;20049;-70
2021/12/13 05:50:02;;;;;;;12.90;7.55;;;;;;;;;;4919707;28;20039;-71
2021/12/13 05:52:59;;;;;;;15.82;7.18;;;;;;;;;;4942640;28;20050;-69
2021/12/13 05:55:49;;;;;;;12.35;8.15;;;;;;;;;;4942913;28;20037;-69
2021/12/13 05:58:38;;;;;;;15.45;8.10;;;;;;;;;;4950072;28;20042;-72
2021/12/13 06:01:26;;;;;;;13.52;7.35;;;;;;;;;;4939673;28;20035;-69
2021/12/13 06:04:16;;;;;;;18.00;8.68;;;;;;;;;;4928800;28;20072;-74
2021/12/13 06:07:10;;;;;;;13.05;8.10;;;;;;;;;;4894930;28;20040;-73
2021/12/13 06:10:02;;;;;;;19.67;8.27;;;;;;;;;;4906096;28;20128;-74
2021/12/13 06:12:47;;;;;;;12.15;7.45;;;;;;;;;;4918361;28;20054;-75
2021/12/13 06:15:34;;;;;;;11.85;7.78;;;;;;;;;;4909316;28;20040;-73
2021/12/13 06:18:21;;;;;;;16.75;7.53;;;;;;;;;;4933697;28;20595;-74
2021/12/13 06:21:11;;;;;;;16.00;8.65;;;;;;;;;;4967449;28;20083;-70
2021/12/13 06:23:56;;;;;;;12.80;7.30;;;;;;;;;;4934731;28;20062;-69
2021/12/13 06:26:41;;;;;;;13.15;7.82;;;;;;;;;;4925760;28;20023;-70
2021/12/13 06:29:40;;;;;;;11.45;6.68;;;;;;;;;;4902729;29;20090;-69
2021/12/13 06:32:28;;;;;;;16.25;8.55;;;;;;;;;;4897847;29;20321;-70
2021/12/13 06:35:34;;;;;;;10.38;6.57;;;;;;;;;;4911590;29;20047;-71
2021/12/13 06:38:20;;;;;;;14.10;7.78;;;;;;;;;;4895597;29;20039;-67
2021/12/13 06:41:07;;;;;;;11.38;6.85;;;;;;;;;;4880089;29;20039;-69
2021/12/13 06:44:04;;;;;;;12.07;6.93;;;;;;;;;;4894157;29;20134;-67
2021/12/13 06:46:49;;;;;;;12.48;7.07;;;;;;;;;;4858887;28;20032;-67
2021/12/13 06:49:35;;;;;;;16.05;7.32;;;;;;;;;;4914504;28;20379;-67
2021/12/13 06:52:26;;;;;;;34.45;21.65;;;;;;;;;;4869452;29;20065;-67
2021/12/13 06:55:14;;;;;;;16.45;9.77;;;;;;;;;;4903465;28;20114;-81
2021/12/13 06:58:00;;;;;;;13.82;8.02;;;;;;;;;;4893407;28;20048;-79
2021/12/13 07:00:47;;;;;;;17.48;7.32;;;;;;;;;;4925265;23;20110;-64
2021/12/13 07:03:34;;;;;;;14.60;7.95;;;;;;;;;;4915388;29;20068;-63
2021/12/13 07:06:20;;;;;;;14.05;7.47;;;;;;;;;;4899724;29;20438;-62
2021/12/13 07:09:11;;;;;;;14.25;8.00;;;;;;;;;;4918571;28;20582;-62
2021/12/13 07:11:57;;;;;;;11.73;6.95;;;;;;;;;;4905913;29;20075;-62
2021/12/13 07:14:43;;;;;;;12.27;7.63;;;;;;;;;;4952791;28;20099;-59
2021/12/13 07:17:34;;;;;;;25.65;18.48;;;;;;;;;;4941320;28;20038;-69
2021/12/13 07:20:19;;;;;;;18.52;10.68;;;;;;;;;;4979578;28;20042;-70
2021/12/13 07:23:05;;;;;;;20.30;9.98;;;;;;;;;;4977834;28;20357;-69
2021/12/13 07:25:51;;;;;;;16.23;7.63;;;;;;;;;;4989879;28;20065;-69
2021/12/13 07:28:37;;;;;;;15.27;9.32;;;;;;;;;;4958085;28;20054;-70
2021/12/13 07:31:22;;;;;;;14.23;8.15;;;;;;;;;;4939325;28;20051;-69
2021/12/13 07:34:13;;;;;;;15.93;9.48;;;;;;;;;;4918013;28;20035;-59
2021/12/13 07:37:00;;;;;;;16.75;8.90;;;;;;;;;;4945648;28;20043;-69
2021/12/13 07:39:47;;;;;;;22.13;11.20;;;;;;;;;;4952615;28;20556;-70
2021/12/13 07:42:32;;;;;;;16.42;8.50;;;;;;;;;;4973370;28;20393;-69
2021/12/13 07:45:23;;;;;;;16.05;9.40;;;;;;;;;;4967300;28;20097;-68
2021/12/13 07:48:11;;;;;;;12.98;8.60;;;;;;;;;;4951989;28;22177;-69
2021/12/13 07:50:59;;;;;;;14.95;8.77;;;;;;;;;;5007435;28;20037;-62
2021/12/13 07:53:57;;;;;;;15.55;9.27;;;;;;;;;;5009150;28;20029;-59
2021/12/13 07:56:45;;;;;;;17.67;9.52;;;;;;;;;;5005763;28;20087;-59
2021/12/13 07:59:33;;;;;;;16.58;9.35;;;;;;;;;;4989490;28;20049;-59
2021/12/13 08:02:31;;;;;;;15.40;8.73;;;;;;;;;;5002259;28;20473;-63
2021/12/13 08:05:21;;;;;;;16.10;9.10;;;;;;;;;;5009612;28;20389;-59
2021/12/13 08:08:14;;;;;;;15.50;8.73;;;;;;;;;;4973110;28;21735;-59
2021/12/13 08:11:00;;;;;;;12.55;8.05;;;;;;;;;;4965072;28;20441;-59
2021/12/13 08:13:55;;;;;;;16.98;9.38;;;;;;;;;;4987183;28;20027;-61
2021/12/13 08:16:44;;;;;;;15.82;9.60;;;;;;;;;;4969128;28;20228;-60
2021/12/13 08:19:32;;;;;;;16.48;10.20;;;;;;;;;;4980036;28;20030;-61
2021/12/13 08:22:19;;;;;;;22.50;10.10;;;;;;;;;;4986563;28;20125;-62
2021/12/13 08:25:08;;;;;;;18.50;10.30;;;;;;;;;;5009225;28;20041;-60
2021/12/13 08:27:56;;;;;;;16.35;10.98;;;;;;;;;;5005489;28;22414;-61
2021/12/13 08:30:50;;;;;;;18.73;10.93;;;;;;;;;;5006830;28;20065;-61
2021/12/13 08:33:38;;;;;;;15.23;9.65;;;;;;;;;;4988811;28;20022;-61
2021/12/13 08:36:23;;;;;;;17.63;10.73;;;;;;;;;;5005946;28;20030;-61
2021/12/13 08:39:14;;;;;;;18.70;10.45;;;;;;;;;;5005541;28;20042;-60
2021/12/13 08:42:09;;;;;;;19.67;11.85;;;;;;;;;;4989299;28;20085;-61
2021/12/13 08:45:03;;;;;;;22.63;13.35;;;;;;;;;;4989709;28;20198;-61
2021/12/13 08:47:58;;;;;;;22.02;12.75;;;;;;;;;;4951937;28;20023;-61
2021/12/13 08:50:49;;;;;;;20.98;13.27;;;;;;;;;;4948892;28;20054;-63
2021/12/13 08:53:36;;;;;;;20.20;12.35;;;;;;;;;;4957762;28;20031;-67
2021/12/13 08:56:23;;;;;;;18.52;10.98;;;;;;;;;;4956468;28;20062;-67
2021/12/13 08:59:29;;;;;;;26.38;13.38;;;;;;;;;;4935189;28;20039;-66
2021/12/13 09:02:14;;;;;;;19.55;12.10;;;;;;;;;;4942984;28;20035;-66
2021/12/13 09:05:04;;;;;;;21.52;13.18;;;;;;;;;;4986849;28;20030;-60
2021/12/13 09:07:55;;;;;;;24.75;14.10;;;;;;;;;;4974748;28;20066;-63
2021/12/13 09:10:47;;;;;;;21.58;13.68;;;;;;;;;;4983225;28;20093;-63
2021/12/13 09:13:43;;;;;;;25.85;13.65;;;;;;;;;;4966695;28;20029;-64
2021/12/13 09:16:39;;;;;;;19.50;13.23;;;;;;;;;;4940575;28;20035;-62
2021/12/13 09:19:32;;;;;;;22.48;13.23;;;;;;;;;;4949929;28;20051;-64
2021/12/13 09:22:23;;;;;;;24.77;14.77;;;;;;;;;;4980259;28;20493;-62
2021/12/13 09:25:12;;;;;;;23.80;12.68;;;;;;;;;;4986151;28;20479;-62
2021/12/13 09:28:01;;;;;;;25.75;13.65;;;;;;;;;;4965471;28;20050;-68
2021/12/13 09:30:49;;;;;;;30.33;17.00;;;;;;;;;;4945066;28;20524;-67
2021/12/13 09:33:37;;;;;;;22.13;13.00;;;;;;;;;;4982612;28;20135;-68
2021/12/13 09:36:30;;;;;;;19.48;12.82;;;;;;;;;;4978850;28;20134;-68
2021/12/13 09:39:26;;;;;;;24.33;12.73;;;;;;;;;;4984179;28;20050;-65
2021/12/13 09:42:14;;;;;;;18.70;11.23;;;;;;;;;;4986899;28;20046;-60
2021/12/13 09:45:02;;;;;;;20.85;11.82;;;;;;;;;;4985281;28;20088;-66
2021/12/13 09:47:48;;;;;;;22.95;10.70;;;;;;;;;;4985876;28;20038;-67
2021/12/13 09:50:34;;;;;;;34.03;20.00;;;;;;;;;;4964725;28;20023;-67
2021/12/13 09:53:26;;;;;;;18.65;11.60;;;;;;;;;;4985000;28;20061;-67
2021/12/13 09:56:13;;;;;;;17.70;8.80;;;;;;;;;;4975206;28;20038;-66
2021/12/13 09:59:03;;;;;;;15.88;8.20;;;;;;;;;;4994382;28;20030;-66
2021/12/13 10:01:52;;;;;;;15.13;8.25;;;;;;;;;;4985929;28;20042;-65
2021/12/13 10:04:39;;;;;;;14.63;9.15;;;;;;;;;;4986028;28;20541;-63
2021/12/13 10:07:30;;;;;;;20.80;9.52;;;;;;;;;;4985650;28;20073;-61
2021/12/13 10:10:18;;;;;;;14.73;8.07;;;;;;;;;;4993888;28;20512;-61
2021/12/13 10:13:06;;;;;;;16.27;8.23;;;;;;;;;;5008018;28;20036;-60
2021/12/13 10:15:53;;;;;;;18.27;9.63;;;;;;;;;;5007842;28;20025;-63
2021/12/13 10:18:40;;;;;;;13.93;8.23;;;;;;;;;;5007286;28;20030;-60
2021/12/13 10:21:28;;;;;;;16.52;8.30;;;;;;;;;;4986839;28;20133;-61
2021/12/13 10:24:23;;;;;;;13.70;8.20;;;;;;;;;;4986372;28;20544;-61
2021/12/13 10:27:11;;;;;;;13.30;7.45;;;;;;;;;;4954373;28;20113;-62
2021/12/13 10:29:58;;;;;;;9.88;6.25;;;;;;;;;;4970405;28;20404;-62
2021/12/13 10:32:44;;;;;;;10.88;5.93;;;;;;;;;;4982287;28;20039;-62
2021/12/13 10:35:33;;;;;;;9.05;5.70;;;;;;;;;;4983319;28;20088;-63
2021/12/13 10:38:21;;;;;;;11.80;7.00;;;;;;;;;;4984418;28;20045;-60
2021/12/13 10:41:30;;;;;;;11.38;5.82;;;;;;;;;;4978760;28;20034;-66
2021/12/13 10:44:24;;;;;;;9.73;5.32;;;;;;;;;;4981993;28;20034;-61
2021/12/13 10:47:13;;;;;;;10.23;5.22;;;;;;;;;;4971967;28;20493;-62
2021/12/13 10:49:59;;;;;;;11.13;5.90;;;;;;;;;;4985594;28;20030;-61
2021/12/13 10:52:48;;;;;;;11.38;6.72;;;;;;;;;;4973409;28;20036;-62
2021/12/13 10:55:36;;;;;;;10.45;6.00;;;;;;;;;;4984935;28;20030;-64
2021/12/13 10:58:23;;;;;;;10.05;5.78;;;;;;;;;;4985895;28;20145;-61
2021/12/13 11:01:14;;;;;;;10.93;6.35;;;;;;;;;;4972534;28;20053;-61
2021/12/13 11:04:01;;;;;;;11.75;5.40;;;;;;;;;;4989418;28;20133;-61
2021/12/13 11:06:47;;;;;;;12.05;6.15;;;;;;;;;;4989508;28;20033;-60
2021/12/13 11:09:35;;;;;;;13.35;6.32;;;;;;;;;;4973692;28;20038;-60
2021/12/13 11:12:32;;;;;;;8.43;4.97;;;;;;;;;;4989380;28;20038;-64
2021/12/13 11:15:20;;;;;;;11.60;5.15;;;;;;;;;;4989648;28;20049;-62
2021/12/13 11:18:08;;;;;;;9.95;5.03;;;;;;;;;;5004727;28;20029;-67
2021/12/13 11:21:04;;;;;;;13.73;8.13;;;;;;;;;;5010799;28;20018;-69
2021/12/13 11:23:50;;;;;;;19.05;13.27;;;;;;;;;;4995726;28;20046;-67
2021/12/13 11:26:38;;;;;;;10.30;5.13;;;;;;;;;;4996757;28;20069;-68
2021/12/13 11:29:24;;;;;;;7.53;4.53;;;;;;;;;;5010594;28;20045;-67
2021/12/13 11:32:28;;;;;;;7.45;4.03;;;;;;;;;;5010116;28;20397;-59
2021/12/13 11:35:32;;;;;;;6.65;3.72;;;;;;;;;;5010798;28;20087;-60
2021/12/13 11:38:36;;;;;;;7.55;4.20;;;;;;;;;;4995448;28;20034;-60
2021/12/13 11:41:40;;;;;;;8.38;4.32;;;;;;;;;;5009079;28;20083;-61
2021/12/13 11:44:44;;;;;;;7.18;4.72;;;;;;;;;;5010235;28;20034;-60
2021/12/13 11:47:30;;;;;;;8.05;4.03;;;;;;;;;;5010279;28;20048;-60
2021/12/13 11:50:15;;;;;;;8.93;4.38;;;;;;;;;;5009948;28;20034;-60
2021/12/13 11:53:14;;;;;;;9.43;4.82;;;;;;;;;;4990936;28;20038;-61
2021/12/13 11:56:18;;;;;;;9.75;5.60;;;;;;;;;;4999423;28;20045;-62
2021/12/13 11:59:07;;;;;;;9.85;4.95;;;;;;;;;;4990851;28;20034;-61
2021/12/13 12:02:01;;;;;;;9.90;5.80;;;;;;;;;;4990925;28;20418;-61
2021/12/13 12:05:06;;;;;;;11.02;6.43;;;;;;;;;;4984367;28;20041;-60
2021/12/13 12:08:00;;;;;;;11.50;6.45;;;;;;;;;;4975935;28;20030;-64
2021/12/13 12:10:52;;;;;;;11.27;6.60;;;;;;;;;;4967139;28;20023;-68
2021/12/13 12:13:50;;;;;;;14.85;6.65;;;;;;;;;;4961614;28;20565;-61
2021/12/13 12:16:38;;;;;;;14.15;6.50;;;;;;;;;;4989922;28;20030;-61
2021/12/13 12:19:28;;;;;;;12.70;6.20;;;;;;;;;;4978707;28;20029;-62
2021/12/13 12:22:16;;;;;;;11.90;6.22;;;;;;;;;;5009193;28;20046;-60
2021/12/13 12:25:02;;;;;;;14.13;6.55;;;;;;;;;;5008851;28;20054;-60
2021/12/13 12:27:50;;;;;;;10.70;4.57;;;;;;;;;;5009054;28;20377;-59
2021/12/13 12:30:44;;;;;;;7.25;3.90;;;;;;;;;;5009673;28;20046;-61
2021/12/13 12:33:34;;;;;;;7.00;3.80;;;;;;;;;;4994926;28;20034;-60
2021/12/13 12:36:21;;;;;;;6.80;3.95;;;;;;;;;;5008985;28;20034;-61
2021/12/13 12:39:13;;;;;;;9.85;4.57;;;;;;;;;;5008965;28;20389;-63
2021/12/13 12:42:17;;;;;;;8.45;4.65;;;;;;;;;;5008665;28;20026;-61
2021/12/13 12:45:05;;;;;;;8.50;4.28;;;;;;;;;;5009704;28;20026;-63
2021/12/13 12:47:57;;;;;;;6.35;4.55;;;;;;;;;;5009238;28;20057;-61
2021/12/13 12:50:45;;;;;;;7.88;4.07;;;;;;;;;;5009079;28;20041;-60
2021/12/13 12:53:45;;;;;;;11.30;6.22;;;;;;;;;;5008228;28;20030;-61
2021/12/13 12:56:31;;;;;;;17.73;9.85;;;;;;;;;;4993551;28;20461;-61
2021/12/13 12:59:18;;;;;;;16.38;11.05;;;;;;;;;;4986452;28;20080;-61
2021/12/13 13:02:09;;;;;;;17.10;10.70;;;;;;;;;;5004276;28;20038;-60
2021/12/13 13:04:57;;;;;;;17.45;11.32;;;;;;;;;;4986609;28;20066;-61
2021/12/13 13:07:42;;;;;;;18.25;11.02;;;;;;;;;;4974927;28;20073;-64
2021/12/13 13:13:18;;;;;;;18.67;11.75;;;;;;;;;;5007010;28;20034;-63
2021/12/13 13:16:05;;;;;;;22.95;11.77;;;;;;;;;;5007591;28;20030;-63
2021/12/13 13:18:53;;;;;;;22.80;12.80;;;;;;;;;;5006975;28;20121;-62
2021/12/13 13:21:45;;;;;;;21.15;12.35;;;;;;;;;;5005864;28;20038;-62
2021/12/13 13:24:31;;;;;;;17.55;11.13;;;;;;;;;;5006160;28;20462;-61
2021/12/13 13:27:18;;;;;;;20.10;11.95;;;;;;;;;;5006007;28;20116;-60
2021/12/13 13:30:07;;;;;;;18.63;10.80;;;;;;;;;;5006208;28;20030;-60
2021/12/13 13:32:52;;;;;;;21.45;12.07;;;;;;;;;;5006552;28;20095;-60
2021/12/13 13:35:38;;;;;;;19.13;12.43;;;;;;;;;;5006589;28;20117;-64
2021/12/13 13:38:24;;;;;;;21.02;12.05;;;;;;;;;;4987542;28;20113;-60
2021/12/13 13:41:18;;;;;;;22.58;13.57;;;;;;;;;;5001665;28;20034;-63
2021/12/13 13:44:11;;;;;;;26.05;13.50;;;;;;;;;;5007354;28;20404;-64
2021/12/13 13:47:01;;;;;;;33.45;21.02;;;;;;;;;;4992770;28;20030;-65
2021/12/13 13:49:47;;;;;;;25.23;16.05;;;;;;;;;;5006779;28;20050;-65
2021/12/13 13:52:40;;;;;;;25.67;16.35;;;;;;;;;;5006873;28;20034;-65
2021/12/13 13:55:28;;;;;;;23.83;13.93;;;;;;;;;;5007771;28;20435;-67
2021/12/13 13:58:19;;;;;;;19.02;12.73;;;;;;;;;;4978658;28;20049;-66
2021/12/13 14:01:05;;;;;;;27.05;12.23;;;;;;;;;;5008026;28;20446;-60
2021/12/13 14:03:59;;;;;;;23.92;12.38;;;;;;;;;;4991837;28;20066;-60
2021/12/13 14:06:46;;;;;;;16.65;9.95;;;;;;;;;;5008758;28;20041;-61
2021/12/13 14:09:42;;;;;;;19.55;12.52;;;;;;;;;;5007009;28;20038;-60
2021/12/13 14:12:32;;;;;;;17.85;11.25;;;;;;;;;;5007486;28;21443;-61
2021/12/13 14:15:18;;;;;;;;;;;;;;;;;;5007860;28;20409;-60
2021/12/13 14:18:09;;;;;;;15.40;11.23;;;;;;;;;;5007572;28;20000;-66
2021/12/13 14:20:56;;;;;;;20.92;11.82;;;;;;;;;;4992771;28;20388;-66
2021/12/13 14:23:46;;;;;;;20.17;12.00;;;;;;;;;;5007251;28;20105;-65
2021/12/13 14:26:32;;;;;;;;;;;;;;;;;;4992452;28;20034;-64
2021/12/13 14:32:26;;;;;;;17.58;11.80;;;;;;;;;;4995720;28;20092;-64
2021/12/13 14:35:14;;;;;;;18.73;11.43;;;;;;;;;;5012172;28;20116;-60
2021/12/13 14:38:03;;;;;;;14.85;10.18;;;;;;;;;;5011012;28;20480;-66
2021/12/13 14:40:52;;;;;;;18.77;12.25;;;;;;;;;;5010492;28;20100;-61
2021/12/13 14:43:40;;;;;;;17.35;11.05;;;;;;;;;;5010837;28;20042;-60
2021/12/13 14:46:27;;;;;;;9.82;6.20;;;;;;;;;;5011705;28;20124;-61
2021/12/13 14:49:15;;;;;;;7.97;4.00;;;;;;;;;;5010595;28;20125;-61
2021/12/13 14:52:09;;;;;;;7.50;4.30;;;;;;;;;;5010280;28;20052;-61
2021/12/13 14:54:56;;;;;;;5.32;3.72;;;;;;;;;;4996123;28;20058;-66
2021/12/13 14:57:50;;;;;;;6.82;4.13;;;;;;;;;;5010856;28;20485;-62
2021/12/13 15:00:41;;;;;;;7.20;4.22;;;;;;;;;;5010658;28;20072;-61
2021/12/13 15:03:30;;;;;;;7.30;5.20;;;;;;;;;;4995609;28;20125;-63
2021/12/13 15:06:18;;;;;;;6.53;5.03;;;;;;;;;;5011115;28;21173;-62
2021/12/13 15:09:07;;;;;;;6.93;4.53;;;;;;;;;;5011359;28;20555;-61
2021/12/13 15:11:58;;;;;;;6.65;4.50;;;;;;;;;;5011360;28;20044;-61
2021/12/13 15:14:45;;;;;;;5.90;3.38;;;;;;;;;;4991411;28;20108;-60
2021/12/13 15:17:35;;;;;;;6.70;4.47;;;;;;;;;;4989660;28;20037;-62
2021/12/13 15:20:24;;;;;;;19.00;11.95;;;;;;;;;;4991847;28;20137;-62
2021/12/13 15:23:16;;;;;;;8.70;5.10;;;;;;;;;;5011930;28;20069;-62
2021/12/13 15:26:07;;;;;;;6.00;4.35;;;;;;;;;;5009775;28;20272;-63
2021/12/13 15:28:55;;;;;;;6.22;4.05;;;;;;;;;;5011041;28;20507;-63
2021/12/13 15:31:41;;;;;;;6.70;3.13;;;;;;;;;;5010393;28;20444;-62
2021/12/13 15:34:28;;;;;;;4.90;3.30;;;;;;;;;;5010403;28;20025;-66
2021/12/13 15:37:34;;;;;;;5.15;4.07;;;;;;;;;;4989862;28;20026;-61
2021/12/13 15:40:29;;;;;;;7.93;3.97;;;;;;;;;;4990188;28;20038;-61
2021/12/13 15:43:16;;;;;;;5.35;4.13;;;;;;;;;;4988214;28;20414;-61
2021/12/13 15:46:01;;;;;;;6.85;4.75;;;;;;;;;;4988220;28;20046;-62
2021/12/13 15:52:09;;;;;;;6.95;4.43;;;;;;;;;;4962233;28;20129;-59
2021/12/13 15:54:56;;;;;;;6.88;4.70;;;;;;;;;;4989344;28;20026;-59
2021/12/13 15:57:42;;;;;;;9.63;5.72;;;;;;;;;;4985961;28;20397;-59
2021/12/13 16:00:27;;;;;;;8.20;5.38;;;;;;;;;;4971004;28;20026;-60
2021/12/13 16:03:18;;;;;;;8.40;5.43;;;;;;;;;;4985611;28;20085;-60
2021/12/13 16:06:04;;;;;;;13.30;9.55;;;;;;;;;;4987007;28;20026;-60
2021/12/13 16:08:54;;;;;;;17.02;12.95;;;;;;;;;;4981802;28;20034;-62
2021/12/13 16:11:47;;;;;;;9.13;5.40;;;;;;;;;;4986614;28;20090;-67
2021/12/13 16:14:38;;;;;;;8.32;5.68;;;;;;;;;;5007255;28;20041;-67
2021/12/13 16:17:30;;;;;;;8.95;5.55;;;;;;;;;;4994949;28;20041;-68
2021/12/13 16:20:16;;;;;;;8.45;5.75;;;;;;;;;;5005979;28;20060;-66
2021/12/13 16:23:13;;;;;;;7.47;5.85;;;;;;;;;;4973936;28;20050;-67
2021/12/13 16:26:11;;;;;;;8.23;6.22;;;;;;;;;;4990935;28;20069;-66
2021/12/13 16:28:57;;;;;;;9.23;6.70;;;;;;;;;;4986953;28;20064;-62
2021/12/13 16:31:43;;;;;;;12.00;7.50;;;;;;;;;;4970012;28;20389;-60
2021/12/13 16:34:28;;;;;;;9.82;7.30;;;;;;;;;;4986604;28;20097;-62
2021/12/13 16:37:14;;;;;;;8.88;6.53;;;;;;;;;;4986523;28;20030;-60
2021/12/13 16:40:00;;;;;;;9.38;6.95;;;;;;;;;;4986721;28;20421;-61
2021/12/13 16:42:45;;;;;;;18.75;13.20;;;;;;;;;;4985644;28;20038;-60
2021/12/13 16:45:34;;;;;;;20.08;15.10;;;;;;;;;;4978380;28;20155;-66
2021/12/13 16:48:28;;;;;;;17.65;9.57;;;;;;;;;;5005173;28;20033;-61
2021/12/13 16:51:18;;;;;;;8.13;5.88;;;;;;;;;;5006511;28;20034;-63
2021/12/13 16:54:11;;;;;;;9.63;6.18;;;;;;;;;;5006316;28;20041;-61
2021/12/13 16:57:03;;;;;;;10.30;6.72;;;;;;;;;;4988902;28;20109;-61
2021/12/13 16:59:50;;;;;;;9.52;7.25;;;;;;;;;;4996243;28;20034;-62